Terminal Aerodrome Forecast
Issued by NWS

Home | Current Version | Previous Version | Text Only | Print | Product List | Glossary On
Versions: 1 2 3 4 5 6 7 8 9 10 11 12
443
FTUS44 KEPZ 271151
TAFTCS
TAF
KTCS 271151Z 2712/2812 VRB04KT P6SM SKC
     FM271700 15009KT P6SM FEW180
     FM272100 21016G28KT P6SM BKN180
     FM280300 28012KT P6SM BKN150=

USA.gov is the U.S. government's official web portal to all federal, state and local government web resources and services.